Time;durP1;ratioP1;P1;durP2;ratioP2;P2;SDS_P1;SDS_P2;PMS_P1;PMS_P2;Temp;Humidity;BMP_temperature;BMP_pressure;BME280_temperature;BME280_humidity;BME280_pressure;Samples;Min_cycle;Max_cycle;Signal;HPM_P1;HPM_P2
2022/04/09 00:01:04;;;;;;;3.60;2.10;;;3.90;99.90;;;;;;5010843;28;20489;-71
2022/04/09 00:03:50;;;;;;;2.75;2.05;;;4.00;99.90;;;;;;5012739;28;20209;-71
2022/04/09 00:06:36;;;;;;;3.05;2.08;;;4.10;99.90;;;;;;5015315;28;20210;-71
2022/04/09 00:09:22;;;;;;;5.23;2.70;;;4.00;99.90;;;;;;4992256;28;20683;-71
2022/04/09 00:12:09;;;;;;;2.73;2.43;;;3.90;99.90;;;;;;4991468;28;20445;-71
2022/04/09 00:14:55;;;;;;;2.47;1.93;;;4.00;99.90;;;;;;4997362;28;20509;-71
2022/04/09 00:17:42;;;;;;;2.35;2.00;;;3.90;99.90;;;;;;4992772;28;20462;-71
2022/04/09 00:20:28;;;;;;;2.60;2.20;;;3.70;99.90;;;;;;4991743;28;20205;-71
2022/04/09 00:23:13;;;;;;;3.00;2.20;;;3.70;99.90;;;;;;4989221;28;20448;-71
2022/04/09 00:25:59;;;;;;;3.22;2.05;;;3.60;99.90;;;;;;4991297;28;20206;-71
2022/04/09 00:28:46;;;;;;;2.90;2.15;;;3.70;99.90;;;;;;4987525;28;20281;-71
2022/04/09 00:31:32;;;;;;;2.70;2.13;;;3.60;99.90;;;;;;4993044;28;20201;-71
2022/04/09 00:34:18;;;;;;;3.47;2.58;;;3.70;99.90;;;;;;4991956;28;20504;-71
2022/04/09 00:37:04;;;;;;;5.40;2.70;;;3.50;99.90;;;;;;4987169;28;20305;-71
2022/04/09 00:39:50;;;;;;;4.05;2.70;;;3.70;99.90;;;;;;4986909;28;20518;-71
2022/04/09 00:42:35;;;;;;;3.40;3.10;;;3.90;99.90;;;;;;4988035;28;20213;-71
2022/04/09 00:45:23;;;;;;;6.28;4.88;;;3.80;99.90;;;;;;4990656;28;20209;-71
2022/04/09 00:48:10;;;;;;;9.13;6.22;;;3.50;99.90;;;;;;4990714;28;20230;-71
2022/04/09 00:50:56;;;;;;;5.35;4.22;;;3.30;99.90;;;;;;4996570;28;20647;-71
2022/04/09 00:53:46;;;;;;;6.10;5.03;;;3.20;99.90;;;;;;4995575;28;20198;-71
2022/04/09 00:56:33;;;;;;;6.60;5.55;;;3.10;99.90;;;;;;4992856;28;20209;-71
2022/04/09 00:59:24;;;;;;;7.72;5.93;;;3.00;99.90;;;;;;4988487;28;20837;-71
2022/04/09 01:02:12;;;;;;;10.73;7.28;;;3.10;99.90;;;;;;4997288;28;20197;-71
2022/04/09 01:04:59;;;;;;;14.98;9.30;;;3.20;99.90;;;;;;4994399;28;20251;-71
2022/04/09 01:07:44;;;;;;;14.75;9.88;;;3.30;99.90;;;;;;4987753;28;20423;-71
2022/04/09 01:10:30;;;;;;;14.20;9.93;;;3.30;99.90;;;;;;4996277;28;20207;-71
2022/04/09 01:13:16;;;;;;;13.05;10.07;;;3.30;99.90;;;;;;4992644;28;20265;-71
2022/04/09 01:16:02;;;;;;;14.88;10.50;;;3.30;99.90;;;;;;4989645;28;20842;-71
2022/04/09 01:18:49;;;;;;;13.75;9.65;;;3.40;99.90;;;;;;4985994;28;20240;-71
2022/04/09 01:21:36;;;;;;;11.63;8.55;;;3.50;99.90;;;;;;4992718;28;20215;-71
2022/04/09 01:24:23;;;;;;;13.25;9.30;;;3.70;99.90;;;;;;4999071;28;20220;-71
2022/04/09 01:27:09;;;;;;;12.97;9.00;;;3.80;99.90;;;;;;5002761;28;20236;-71
2022/04/09 01:29:55;;;;;;;11.82;8.65;;;3.80;99.90;;;;;;4997166;28;20467;-71
2022/04/09 01:32:40;;;;;;;11.63;8.75;;;3.90;99.90;;;;;;4995607;28;20398;-71
2022/04/09 01:35:26;;;;;;;12.43;9.10;;;3.90;99.90;;;;;;4994770;28;20347;-71
2022/04/09 01:38:12;;;;;;;14.30;9.10;;;3.90;99.90;;;;;;4994536;28;20460;-71
2022/04/09 01:40:59;;;;;;;12.23;8.65;;;4.00;99.90;;;;;;4995668;28;20441;-71
2022/04/09 01:43:45;;;;;;;15.52;9.95;;;3.90;99.90;;;;;;4992806;28;20206;-71
2022/04/09 01:46:31;;;;;;;13.63;9.50;;;3.90;99.90;;;;;;4998017;28;20686;-71
2022/04/09 01:49:16;;;;;;;13.20;9.07;;;3.90;99.90;;;;;;4994426;28;21039;-71
2022/04/09 01:52:02;;;;;;;16.07;11.10;;;4.00;99.90;;;;;;4999850;28;20301;-71
2022/04/09 01:54:48;;;;;;;14.38;9.95;;;3.90;99.90;;;;;;4996604;28;20490;-71
2022/04/09 01:57:35;;;;;;;13.95;9.93;;;3.90;99.90;;;;;;4991512;28;20250;-71
2022/04/09 02:00:22;;;;;;;14.80;8.80;;;3.90;99.90;;;;;;4998303;28;20205;-71
2022/04/09 02:03:08;;;;;;;15.67;9.10;;;3.90;99.90;;;;;;5003186;28;20550;-71
2022/04/09 02:05:53;;;;;;;14.13;9.02;;;4.00;99.90;;;;;;4994483;28;20418;-71
2022/04/09 02:08:39;;;;;;;14.27;9.80;;;4.00;99.90;;;;;;5000852;28;20271;-71
2022/04/09 02:11:24;;;;;;;15.85;10.50;;;4.10;99.90;;;;;;5002523;28;20440;-71
2022/04/09 02:14:12;;;;;;;13.88;9.63;;;4.00;99.90;;;;;;4999826;28;20681;-71
2022/04/09 02:16:58;;;;;;;14.80;10.35;;;3.90;99.90;;;;;;4998231;28;20801;-71
2022/04/09 02:19:43;;;;;;;15.30;9.77;;;3.80;99.90;;;;;;4994114;28;20287;-71
2022/04/09 02:22:35;;;;;;;12.05;7.90;;;3.90;99.90;;;;;;4999456;28;20205;-71
2022/04/09 02:25:20;;;;;;;15.25;8.95;;;3.80;99.90;;;;;;4992477;28;20206;-71
2022/04/09 02:28:06;;;;;;;12.30;8.45;;;3.90;99.90;;;;;;4990427;28;20240;-71
2022/04/09 02:30:53;;;;;;;13.40;9.73;;;3.90;99.90;;;;;;4995377;28;20255;-71
2022/04/09 02:33:39;;;;;;;14.98;9.18;;;3.80;99.90;;;;;;4995698;28;20706;-71
2022/04/09 02:36:24;;;;;;;14.90;9.97;;;3.70;99.90;;;;;;4993956;28;20207;-71
2022/04/09 02:39:11;;;;;;;11.43;8.65;;;3.70;99.90;;;;;;5000630;28;20461;-71
2022/04/09 02:41:56;;;;;;;14.52;10.23;;;3.70;99.90;;;;;;4996146;28;20339;-71
2022/04/09 02:44:43;;;;;;;13.85;9.75;;;3.70;99.90;;;;;;4996569;28;20209;-71
2022/04/09 02:47:30;;;;;;;13.45;9.15;;;3.70;99.90;;;;;;4992537;28;20249;-71
2022/04/09 02:50:16;;;;;;;13.27;8.85;;;3.70;99.90;;;;;;4996102;28;20213;-71
2022/04/09 02:53:01;;;;;;;13.77;9.73;;;3.80;99.90;;;;;;4993884;28;20221;-71
2022/04/09 02:55:47;;;;;;;13.13;9.70;;;3.90;99.90;;;;;;4992595;28;20564;-71
2022/04/09 02:58:33;;;;;;;14.88;10.20;;;4.00;99.90;;;;;;4993334;28;20834;-71
2022/04/09 03:01:18;;;;;;;13.13;8.93;;;4.00;99.90;;;;;;4990820;28;20198;-71
2022/04/09 03:04:05;;;;;;;15.13;9.65;;;4.00;99.90;;;;;;4996181;28;20427;-71
2022/04/09 03:06:51;;;;;;;15.32;10.43;;;4.10;99.90;;;;;;4989777;28;20576;-71
2022/04/09 03:09:37;;;;;;;14.95;10.63;;;4.10;99.90;;;;;;4998983;28;20710;-71
2022/04/09 03:12:23;;;;;;;17.33;11.95;;;4.00;99.90;;;;;;4994383;28;20616;-71
2022/04/09 03:15:10;;;;;;;19.20;12.80;;;4.10;99.90;;;;;;4992135;28;20356;-71
2022/04/09 03:17:56;;;;;;;15.95;9.70;;;4.00;99.90;;;;;;4994278;28;20613;-71
2022/04/09 03:20:42;;;;;;;13.50;9.48;;;3.80;99.90;;;;;;4998544;28;20221;-71
2022/04/09 03:23:28;;;;;;;21.25;13.23;;;3.80;99.90;;;;;;4995407;28;20201;-71
2022/04/09 03:26:14;;;;;;;15.00;11.73;;;3.70;99.90;;;;;;4991704;28;20785;-71
2022/04/09 03:28:59;;;;;;;15.15;11.73;;;3.60;99.90;;;;;;4994676;28;20228;-71
2022/04/09 03:31:45;;;;;;;19.90;11.70;;;3.60;99.90;;;;;;4990909;28;20222;-71
2022/04/09 03:34:31;;;;;;;14.68;11.30;;;3.70;99.90;;;;;;4994909;28;20267;-71
2022/04/09 03:37:17;;;;;;;17.20;12.25;;;3.60;99.90;;;;;;4990056;28;20232;-71
2022/04/09 03:40:04;;;;;;;18.17;12.50;;;3.80;99.90;;;;;;4992240;28;20341;-71
2022/04/09 03:42:50;;;;;;;15.60;12.10;;;3.70;99.90;;;;;;4990866;28;20217;-71
2022/04/09 03:45:36;;;;;;;20.35;13.35;;;3.80;99.90;;;;;;4993044;28;20959;-71
2022/04/09 03:48:22;;;;;;;20.05;13.30;;;3.60;99.90;;;;;;4992496;28;20230;-71
2022/04/09 03:51:07;;;;;;;19.30;11.98;;;3.50;99.90;;;;;;4990027;28;20588;-71
2022/04/09 03:53:55;;;;;;;22.00;13.02;;;3.70;99.90;;;;;;4991074;28;20331;-71
2022/04/09 03:56:43;;;;;;;20.75;14.00;;;3.70;99.90;;;;;;4993641;28;20664;-71
2022/04/09 03:59:28;;;;;;;19.63;14.30;;;3.60;99.90;;;;;;4990355;28;20790;-71
2022/04/09 04:02:14;;;;;;;19.48;14.52;;;3.70;99.90;;;;;;4994387;28;20213;-71
2022/04/09 04:05:02;;;;;;;17.75;13.40;;;3.70;99.90;;;;;;4986249;28;20210;-71
2022/04/09 04:07:49;;;;;;;16.05;12.00;;;3.80;99.90;;;;;;4989255;28;20233;-71
2022/04/09 04:10:37;;;;;;;18.33;12.70;;;3.60;99.90;;;;;;4991339;28;20224;-71
2022/04/09 04:13:23;;;;;;;21.38;14.43;;;3.70;99.90;;;;;;4995509;28;20203;-71
2022/04/09 04:16:09;;;;;;;19.80;14.52;;;3.70;99.90;;;;;;4989105;28;20213;-71
2022/04/09 04:18:54;;;;;;;14.60;11.60;;;3.60;99.90;;;;;;4992040;28;20588;-71
2022/04/09 04:21:40;;;;;;;22.05;13.98;;;3.60;99.90;;;;;;4993285;28;20337;-71
2022/04/09 04:24:26;;;;;;;20.98;13.73;;;3.50;99.90;;;;;;4995362;28;20693;-71
2022/04/09 04:27:13;;;;;;;19.60;13.75;;;3.60;99.90;;;;;;4995101;28;20246;-71
2022/04/09 04:30:00;;;;;;;27.27;14.35;;;3.50;99.90;;;;;;4991512;28;20233;-71
2022/04/09 04:32:46;;;;;;;20.85;13.88;;;3.60;99.90;;;;;;4988283;28;20571;-71
2022/04/09 04:35:31;;;;;;;22.98;14.45;;;3.60;99.90;;;;;;4988871;28;20222;-71
2022/04/09 04:38:17;;;;;;;21.40;13.77;;;3.70;99.90;;;;;;4988770;28;20715;-71
2022/04/09 04:41:04;;;;;;;19.70;14.90;;;3.70;99.90;;;;;;4994889;28;20193;-71
2022/04/09 04:43:52;;;;;;;20.15;13.30;;;3.70;99.90;;;;;;4989902;28;20205;-71
2022/04/09 04:46:39;;;;;;;19.17;13.85;;;3.70;99.90;;;;;;4992324;28;20215;-71
2022/04/09 04:49:24;;;;;;;17.55;12.23;;;3.80;99.90;;;;;;4993395;28;20215;-71
2022/04/09 04:52:10;;;;;;;19.35;13.85;;;3.70;99.90;;;;;;4994913;28;20203;-71
2022/04/09 04:54:56;;;;;;;20.20;12.52;;;3.80;99.90;;;;;;4986064;28;20338;-71
2022/04/09 04:57:43;;;;;;;18.52;11.73;;;3.80;99.90;;;;;;4992731;28;20714;-71
2022/04/09 05:00:30;;;;;;;17.80;11.50;;;3.70;99.90;;;;;;4989373;28;20341;-71
2022/04/09 05:03:16;;;;;;;17.55;11.13;;;3.80;99.90;;;;;;4990934;28;20302;-71
2022/04/09 05:06:02;;;;;;;16.40;11.73;;;3.60;99.90;;;;;;4991579;28;20267;-71
2022/04/09 05:08:48;;;;;;;17.50;12.23;;;3.60;99.90;;;;;;4992440;28;20231;-71
2022/04/09 05:11:33;;;;;;;15.20;11.02;;;3.50;99.90;;;;;;4994191;28;20629;-71
2022/04/09 05:14:19;;;;;;;18.38;11.00;;;3.50;99.90;;;;;;4989842;28;20681;-71
2022/04/09 05:17:06;;;;;;;24.17;11.50;;;3.60;99.90;;;;;;4992640;28;20232;-71
2022/04/09 05:19:52;;;;;;;18.35;12.20;;;3.70;99.90;;;;;;4992224;28;20198;-71
2022/04/09 05:22:41;;;;;;;19.80;10.98;;;3.70;99.90;;;;;;4998137;28;20225;-71
2022/04/09 05:25:31;;;;;;;17.52;11.00;;;3.70;99.90;;;;;;4989156;28;20210;-71
2022/04/09 05:28:16;;;;;;;17.60;11.75;;;3.70;99.90;;;;;;4990964;28;20309;-71
2022/04/09 05:31:02;;;;;;;15.70;10.70;;;3.90;99.90;;;;;;4988829;28;20209;-72
2022/04/09 05:33:50;;;;;;;21.45;11.05;;;3.80;99.90;;;;;;4987703;28;20204;-72
2022/04/09 05:36:35;;;;;;;12.98;9.73;;;3.80;99.90;;;;;;4993111;28;20267;-71
2022/04/09 05:39:21;;;;;;;15.77;10.18;;;3.90;99.90;;;;;;4992140;28;20218;-72
2022/04/09 05:42:07;;;;;;;16.40;10.52;;;4.00;99.90;;;;;;4990288;28;20215;-72
2022/04/09 05:44:53;;;;;;;17.00;11.52;;;3.90;99.90;;;;;;4996112;28;20224;-72
2022/04/09 05:47:40;;;;;;;21.65;11.88;;;3.90;99.90;;;;;;4997164;28;20702;-71
2022/04/09 05:50:27;;;;;;;16.27;11.18;;;3.80;99.90;;;;;;4997091;28;20269;-71
2022/04/09 05:53:13;;;;;;;16.10;10.65;;;3.90;99.90;;;;;;4986154;28;20601;-71
2022/04/09 05:55:58;;;;;;;14.23;9.40;;;3.90;99.90;;;;;;4991762;28;20223;-72
2022/04/09 05:58:44;;;;;;;18.20;10.25;;;3.90;99.90;;;;;;4994710;28;20318;-72
2022/04/09 06:01:30;;;;;;;18.13;12.02;;;3.80;99.90;;;;;;5000946;28;20203;-70
2022/04/09 06:04:19;;;;;;;13.50;9.70;;;3.90;99.90;;;;;;4988577;28;20209;-71
2022/04/09 06:07:06;;;;;;;17.40;9.15;;;3.90;99.90;;;;;;4998708;28;20585;-70
2022/04/09 06:09:52;;;;;;;16.80;10.35;;;4.00;99.90;;;;;;4991918;28;20569;-70
2022/04/09 06:12:38;;;;;;;16.25;10.15;;;4.10;99.90;;;;;;4995613;28;20329;-71
2022/04/09 06:15:23;;;;;;;12.47;8.77;;;4.20;99.90;;;;;;4994126;28;20202;-70
2022/04/09 06:18:10;;;;;;;12.77;9.20;;;4.20;99.90;;;;;;4998861;28;20452;-71
2022/04/09 06:20:56;;;;;;;16.50;9.30;;;4.20;99.90;;;;;;4992312;28;20549;-70
2022/04/09 06:23:43;;;;;;;14.30;10.23;;;4.30;99.90;;;;;;4990405;28;20477;-70
2022/04/09 06:26:29;;;;;;;13.32;9.35;;;4.30;99.90;;;;;;4991320;28;20202;-71
2022/04/09 06:29:15;;;;;;;17.10;9.32;;;4.30;99.90;;;;;;4991423;28;20206;-69
2022/04/09 06:32:00;;;;;;;19.35;9.38;;;4.40;99.90;;;;;;4987923;28;20568;-70
2022/04/09 06:34:46;;;;;;;13.97;9.10;;;4.40;99.90;;;;;;4993492;28;20296;-70
2022/04/09 06:37:32;;;;;;;17.20;11.57;;;4.20;99.90;;;;;;4990272;28;20443;-69
2022/04/09 06:40:20;;;;;;;17.80;9.40;;;4.30;99.90;;;;;;4992934;28;20195;-70
2022/04/09 06:43:06;;;;;;;11.35;8.27;;;4.30;99.90;;;;;;4987414;28;20203;-71
2022/04/09 06:45:52;;;;;;;16.38;9.48;;;4.30;99.90;;;;;;4991423;28;20309;-71
2022/04/09 06:48:37;;;;;;;13.80;9.10;;;4.40;99.90;;;;;;4991455;28;20273;-70
2022/04/09 06:51:24;;;;;;;12.98;9.10;;;4.50;99.90;;;;;;4996291;28;20499;-69
2022/04/09 06:54:10;;;;;;;9.80;8.03;;;4.60;99.90;;;;;;4989505;28;20206;-73
2022/04/09 06:56:57;;;;;;;16.80;8.77;;;4.70;99.90;;;;;;4987417;28;21722;-70
2022/04/09 06:59:42;;;;;;;11.90;8.30;;;4.80;99.90;;;;;;4992938;28;20776;-70
2022/04/09 07:02:28;;;;;;;13.40;8.70;;;4.90;99.90;;;;;;4991647;28;20811;-70
2022/04/09 07:05:13;;;;;;;18.37;8.80;;;4.90;99.90;;;;;;4998737;28;20257;-70
2022/04/09 07:08:01;;;;;;;10.63;8.10;;;5.00;99.90;;;;;;4995176;28;20449;-69
2022/04/09 07:10:46;;;;;;;17.48;8.57;;;5.10;99.90;;;;;;5001553;28;20589;-69
2022/04/09 07:13:34;;;;;;;11.63;9.43;;;5.30;99.90;;;;;;4995368;28;20301;-69
2022/04/09 07:16:19;;;;;;;12.37;9.07;;;5.20;99.90;;;;;;4995390;28;20599;-70
2022/04/09 07:19:07;;;;;;;17.37;9.27;;;5.20;99.90;;;;;;4995539;28;21049;-72
2022/04/09 07:21:53;;;;;;;12.20;8.47;;;5.20;99.90;;;;;;4986915;28;20958;-70
2022/04/09 07:24:40;;;;;;;22.90;9.80;;;5.20;99.90;;;;;;4999029;28;20449;-70
2022/04/09 07:27:36;;;;;;;22.13;9.17;;;5.00;99.90;;;;;;4992889;28;20297;-71
2022/04/09 07:30:26;;;;;;;14.02;9.10;;;5.00;99.90;;;;;;4988341;28;20589;-70
2022/04/09 07:33:11;;;;;;;12.23;8.80;;;5.10;99.90;;;;;;4988225;28;20207;-70
2022/04/09 07:35:57;;;;;;;18.97;10.50;;;5.20;99.90;;;;;;4998589;28;20436;-72
2022/04/09 07:38:43;;;;;;;16.40;10.27;;;5.30;99.90;;;;;;4999879;28;20458;-70
2022/04/09 07:41:29;;;;;;;16.43;10.17;;;5.30;99.90;;;;;;4990914;28;20425;-70
2022/04/09 07:44:14;;;;;;;13.70;9.97;;;5.50;99.90;;;;;;4990561;28;20918;-71
2022/04/09 07:47:01;;;;;;;16.43;9.87;;;5.50;99.90;;;;;;4990453;28;20562;-70
2022/04/09 07:49:49;;;;;;;16.47;11.00;;;5.60;99.90;;;;;;4993380;28;20466;-70
2022/04/09 07:52:35;;;;;;;15.20;9.90;;;5.40;99.90;;;;;;4989202;28;20971;-70
2022/04/09 07:55:21;;;;;;;17.57;9.63;;;5.60;99.90;;;;;;4993533;28;20484;-70
2022/04/09 07:58:08;;;;;;;14.23;10.03;;;5.70;99.90;;;;;;4991402;28;20478;-70
2022/04/09 08:00:54;;;;;;;20.88;11.30;;;5.80;99.90;;;;;;4990293;28;20429;-71
2022/04/09 08:03:41;;;;;;;18.33;9.63;;;5.90;99.90;;;;;;4993551;28;20273;-70
2022/04/09 08:06:26;;;;;;;18.73;9.73;;;6.00;99.90;;;;;;4997217;28;20987;-70
2022/04/09 08:09:12;;;;;;;22.38;10.90;;;6.10;99.90;;;;;;4993242;28;20419;-70
2022/04/09 08:11:58;;;;;;;17.00;10.13;;;6.10;99.90;;;;;;4983677;28;20245;-70
2022/04/09 08:14:43;;;;;;;17.55;9.52;;;6.10;99.90;;;;;;4992757;28;20210;-70
2022/04/09 08:17:29;;;;;;;14.23;10.35;;;6.20;99.90;;;;;;4990866;28;20273;-70
2022/04/09 08:20:20;;;;;;;19.20;10.73;;;6.10;99.90;;;;;;4991627;28;20203;-70
2022/04/09 08:23:06;;;;;;;12.17;8.60;;;6.10;99.90;;;;;;4991543;28;20564;-70
2022/04/09 08:25:51;;;;;;;16.40;10.03;;;6.20;99.90;;;;;;4991419;28;20428;-71
2022/04/09 08:28:37;;;;;;;23.83;10.10;;;6.30;99.90;;;;;;4989577;28;21110;-71
2022/04/09 08:31:23;;;;;;;11.63;9.57;;;6.40;99.90;;;;;;4987563;28;20824;-69
2022/04/09 08:34:09;;;;;;;18.30;10.60;;;6.40;99.90;;;;;;4990737;28;20517;-69
2022/04/09 08:36:56;;;;;;;16.23;11.13;;;6.30;99.90;;;;;;4998746;28;20942;-70
2022/04/09 08:39:42;;;;;;;17.50;11.30;;;6.40;99.90;;;;;;4996066;28;20928;-70
2022/04/09 08:42:29;;;;;;;17.97;11.47;;;6.50;99.90;;;;;;4995460;28;20811;-70
2022/04/09 08:45:15;;;;;;;21.03;12.00;;;6.60;99.90;;;;;;4994857;28;20568;-70
2022/04/09 08:48:02;;;;;;;17.80;11.63;;;6.60;99.90;;;;;;5005218;28;20454;-70
2022/04/09 08:50:48;;;;;;;18.80;10.77;;;6.60;99.90;;;;;;4986978;28;20479;-70
2022/04/09 08:53:38;;;;;;;15.63;10.67;;;6.80;99.90;;;;;;4987412;28;20840;-72
2022/04/09 08:56:25;;;;;;;16.63;11.40;;;6.80;99.90;;;;;;4995797;28;20840;-70
2022/04/09 08:59:11;;;;;;;25.07;12.57;;;6.80;99.90;;;;;;4992193;28;20552;-71
2022/04/09 09:01:57;;;;;;;14.50;11.43;;;6.90;99.90;;;;;;4993024;28;20420;-71
2022/04/09 09:04:45;;;;;;;14.77;11.07;;;7.00;99.90;;;;;;4997553;28;20425;-71
2022/04/09 09:07:31;;;;;;;20.93;11.60;;;7.00;99.90;;;;;;4999507;28;20581;-71
2022/04/09 09:10:19;;;;;;;20.00;10.40;;;6.80;99.90;;;;;;4990052;28;20521;-72
2022/04/09 09:13:06;;;;;;;23.57;10.53;;;6.50;99.90;;;;;;4997215;28;20527;-75
2022/04/09 09:15:53;;;;;;;16.20;10.33;;;6.30;99.90;;;;;;4992753;28;20427;-70
2022/04/09 09:18:38;;;;;;;13.83;10.30;;;6.20;99.90;;;;;;4990675;28;20444;-69
2022/04/09 09:21:26;;;;;;;16.70;9.00;;;6.50;99.90;;;;;;4986153;28;20475;-70
2022/04/09 09:24:15;;;;;;;11.50;7.30;;;6.70;99.90;;;;;;4995032;28;20420;-73
2022/04/09 09:27:04;;;;;;;15.40;7.60;;;7.00;99.90;;;;;;4986141;28;20439;-70
2022/04/09 09:29:55;;;;;;;15.47;7.90;;;6.90;99.90;;;;;;4987412;28;20550;-70
2022/04/09 09:32:42;;;;;;;16.63;7.30;;;7.10;99.90;;;;;;4996974;28;20576;-70
2022/04/09 09:35:48;;;;;;;14.80;7.00;;;7.20;99.90;;;;;;4995238;28;20450;-67
2022/04/09 09:38:34;;;;;;;19.13;7.77;;;7.20;99.90;;;;;;4989052;28;20448;-67
2022/04/09 09:41:24;;;;;;;16.03;8.57;;;7.20;99.90;;;;;;4987913;28;20832;-70
2022/04/09 09:44:11;;;;;;;15.83;6.63;;;7.30;99.90;;;;;;5003482;28;20962;-70
2022/04/09 09:47:07;;;;;;;21.63;5.73;;;7.50;99.90;;;;;;4999287;28;20464;-70
2022/04/09 09:49:55;;;;;;;24.70;7.50;;;7.60;99.90;;;;;;4989665;28;20417;-70
2022/04/09 09:52:41;;;;;;;14.40;6.70;;;7.70;99.90;;;;;;5002296;28;20405;-70
2022/04/09 09:55:26;;;;;;;14.43;6.30;;;7.90;99.90;;;;;;4999261;28;20417;-71
2022/04/09 09:58:16;;;;;;;18.40;6.23;;;8.10;99.90;;;;;;4999625;28;20464;-70
2022/04/09 10:01:03;;;;;;;14.37;5.33;;;8.20;99.90;;;;;;4989012;28;20951;-73
2022/04/09 10:03:50;;;;;;;20.93;6.43;;;8.10;99.90;;;;;;4994113;28;20417;-71
2022/04/09 10:06:36;;;;;;;10.70;5.10;;;8.10;99.90;;;;;;5003829;28;20922;-70
2022/04/09 10:09:23;;;;;;;12.63;5.77;;;8.30;99.90;;;;;;4993749;28;20417;-73
2022/04/09 10:12:13;;;;;;;13.87;6.03;;;8.50;99.90;;;;;;4991510;28;20472;-71
2022/04/09 10:15:00;;;;;;;8.80;4.90;;;8.70;99.90;;;;;;4994286;28;20517;-72
2022/04/09 10:17:47;;;;;;;15.30;5.67;;;8.70;99.90;;;;;;4996823;28;20482;-70
2022/04/09 10:20:33;;;;;;;13.50;5.00;;;8.70;99.90;;;;;;4990325;28;20420;-70
2022/04/09 10:23:19;;;;;;;16.07;6.23;;;8.70;99.90;;;;;;4993211;28;20879;-71
2022/04/09 10:26:06;;;;;;;15.80;5.43;;;8.90;99.90;;;;;;4992214;28;20537;-70
2022/04/09 10:28:52;;;;;;;16.60;4.77;;;8.90;99.90;;;;;;4993193;28;20969;-70
2022/04/09 10:31:39;;;;;;;12.13;4.60;;;8.90;99.90;;;;;;4989284;28;20454;-70
2022/04/09 10:34:27;;;;;;;12.60;5.03;;;8.80;99.90;;;;;;4990645;28;20492;-70
2022/04/09 10:37:12;;;;;;;8.50;4.70;;;8.80;99.90;;;;;;4998231;28;20512;-69
2022/04/09 10:40:05;;;;;;;12.53;5.00;;;8.90;99.90;;;;;;4990719;28;20540;-69
2022/04/09 10:42:51;;;;;;;7.47;3.90;;;9.00;99.90;;;;;;4991846;28;20417;-69
2022/04/09 10:46:21;;;;;;;13.37;4.70;;;9.00;99.90;;;;;;4996156;28;22039;-69
2022/04/09 10:49:28;;;;;;;9.63;4.17;;;8.80;99.90;;;;;;4994795;28;20478;-73
2022/04/09 10:52:18;;;;;;;7.40;4.40;;;8.90;99.90;;;;;;4994517;28;20822;-70
2022/04/09 10:55:26;;;;;;;12.63;3.47;;;9.00;99.90;;;;;;4989647;28;20433;-71
2022/04/09 10:58:12;;;;;;;11.13;3.60;;;9.00;99.90;;;;;;4991468;28;20599;-71
2022/04/09 11:00:58;;;;;;;19.73;4.20;;;8.90;99.90;;;;;;4986305;28;20436;-70
2022/04/09 11:03:45;;;;;;;12.20;5.03;;;8.80;99.90;;;;;;4996602;28;20979;-70
2022/04/09 11:06:43;;;;;;;8.30;3.73;;;8.70;99.90;;;;;;4994150;28;20454;-70
2022/04/09 11:09:44;;;;;;;10.17;4.10;;;8.80;99.90;;;;;;4996038;28;20467;-70
2022/04/09 11:12:31;;;;;;;13.80;3.97;;;9.00;99.90;;;;;;4992970;28;20445;-70
2022/04/09 11:15:17;;;;;;;15.53;4.27;;;9.10;99.90;;;;;;4994620;28;20464;-72
2022/04/09 11:18:03;;;;;;;9.30;5.53;;;9.10;99.90;;;;;;4996004;28;20462;-70
2022/04/09 11:20:51;;;;;;;11.00;4.37;;;9.10;99.90;;;;;;4992137;28;20787;-70
2022/04/09 11:23:37;;;;;;;15.13;4.73;;;9.20;99.90;;;;;;4990824;28;20458;-70
2022/04/09 11:26:26;;;;;;;10.70;3.90;;;9.50;99.90;;;;;;4994788;28;20441;-70
2022/04/09 11:29:12;;;;;;;18.30;3.43;;;9.80;99.90;;;;;;4989089;28;20513;-70
2022/04/09 11:31:58;;;;;;;7.03;3.50;;;10.00;99.90;;;;;;4995027;28;20534;-70
2022/04/09 11:34:55;;;;;;;7.10;3.77;;;9.90;99.90;;;;;;4994693;28;20569;-70
2022/04/09 11:37:43;;;;;;;10.73;5.27;;;9.70;99.90;;;;;;4990392;28;20449;-70
2022/04/09 11:40:29;;;;;;;11.53;4.10;;;9.90;99.90;;;;;;4985823;28;20433;-70
2022/04/09 11:43:15;;;;;;;10.80;3.47;;;10.10;99.90;;;;;;4992241;28;20550;-71
2022/04/09 11:46:05;;;;;;;13.23;5.03;;;10.00;99.90;;;;;;4995926;28;21165;-71
2022/04/09 11:48:59;;;;;;;7.73;3.70;;;9.60;99.90;;;;;;4989109;28;20454;-70
2022/04/09 11:51:54;;;;;;;16.23;4.40;;;9.40;99.90;;;;;;4991860;28;20438;-70
2022/04/09 11:54:43;;;;;;;11.70;3.67;;;9.40;99.90;;;;;;4991903;28;20460;-70
2022/04/09 11:57:28;;;;;;;9.10;3.60;;;9.60;99.90;;;;;;4991741;28;20549;-70
2022/04/09 12:00:14;;;;;;;7.83;2.50;;;9.80;99.90;;;;;;5030209;23;20576;-88
2022/04/09 12:03:02;;;;;;;11.80;3.40;;;10.00;99.00;;;;;;5030279;28;20506;-87
2022/04/09 12:05:51;;;;;;;9.30;3.00;;;10.20;99.40;;;;;;5030216;28;20432;-88
2022/04/09 12:08:37;;;;;;;14.47;3.00;;;10.50;91.70;;;;;;5028766;28;20460;-88
2022/04/09 12:11:24;;;;;;;7.30;2.40;;;10.40;85.80;;;;;;5027345;28;20481;-88
2022/04/09 12:14:12;;;;;;;7.93;2.93;;;10.60;89.80;;;;;;5026712;28;20496;-87
2022/04/09 12:17:08;;;;;;;8.27;2.63;;;10.60;88.50;;;;;;5030024;28;20546;-87
2022/04/09 12:19:54;;;;;;;8.07;2.50;;;10.90;85.40;;;;;;5023045;28;20465;-87
2022/04/09 12:22:40;;;;;;;13.93;3.47;;;11.20;85.70;;;;;;5027638;28;20433;-87
2022/04/09 12:25:34;;;;;;;8.60;2.70;;;11.30;75.20;;;;;;5028151;28;20412;-87
2022/04/09 12:28:23;;;;;;;9.33;2.33;;;11.40;72.80;;;;;;5027905;28;20557;-88
2022/04/09 12:31:25;;;;;;;8.83;2.53;;;11.40;67.60;;;;;;5027012;28;20561;-87
2022/04/09 12:34:11;;;;;;;13.03;2.30;;;11.60;68.40;;;;;;5026112;28;20423;-88
2022/04/09 12:37:00;;;;;;;8.40;2.50;;;11.60;68.70;;;;;;5030307;28;20412;-88
2022/04/09 12:39:46;;;;;;;6.20;2.47;;;11.70;67.80;;;;;;5027381;28;20935;-88
2022/04/09 12:42:32;;;;;;;8.10;2.77;;;11.70;64.30;;;;;;5028716;28;20436;-88
2022/04/09 12:45:22;;;;;;;11.40;2.93;;;11.80;61.90;;;;;;5026605;28;20452;-88
2022/04/09 12:48:11;;;;;;;7.53;2.30;;;11.90;62.00;;;;;;5026866;28;20423;-87
2022/04/09 12:50:57;;;;;;;11.93;2.57;;;11.80;57.80;;;;;;5029624;28;21009;-87
2022/04/09 12:53:44;;;;;;;8.17;2.33;;;12.00;60.80;;;;;;5028258;28;20803;-88
2022/04/09 12:56:30;;;;;;;5.13;2.60;;;12.10;58.80;;;;;;5027295;28;20537;-87
2022/04/09 12:59:15;;;;;;;9.57;3.40;;;11.90;60.20;;;;;;5028068;28;20597;-88
2022/04/09 13:02:03;;;;;;;6.20;2.43;;;11.60;63.60;;;;;;5029257;28;20463;-88
2022/04/09 13:04:50;;;;;;;8.47;2.77;;;11.50;61.80;;;;;;5028505;28;20438;-88
2022/04/09 13:07:35;;;;;;;11.70;2.30;;;11.00;61.50;;;;;;5024279;28;20465;-88
2022/04/09 13:10:21;;;;;;;10.73;2.43;;;10.70;61.70;;;;;;5026220;28;20444;-87
2022/04/09 13:13:07;;;;;;;6.90;2.30;;;10.30;64.10;;;;;;5033701;28;21257;-89
2022/04/09 13:15:53;;;;;;;6.83;2.20;;;10.10;67.20;;;;;;5029729;28;21325;-88
2022/04/09 13:18:41;;;;;;;6.87;2.00;;;10.00;64.40;;;;;;5026097;28;20524;-88
2022/04/09 13:21:27;;;;;;;3.57;1.70;;;10.10;68.00;;;;;;5027029;28;20466;-88
2022/04/09 13:24:14;;;;;;;7.40;1.80;;;10.30;71.00;;;;;;5027999;28;20575;-88
2022/04/09 13:27:00;;;;;;;9.50;2.20;;;10.40;77.00;;;;;;5025634;28;20481;-87
2022/04/09 13:29:46;;;;;;;3.33;1.80;;;10.60;76.80;;;;;;5027142;28;20451;-88
2022/04/09 13:32:31;;;;;;;8.73;1.67;;;10.70;74.10;;;;;;5028453;28;20442;-88
2022/04/09 13:35:18;;;;;;;6.40;2.30;;;10.70;75.00;;;;;;5029019;28;20520;-87
2022/04/09 13:38:04;;;;;;;11.53;2.47;;;10.60;73.10;;;;;;5024563;28;20509;-87
2022/04/09 13:40:50;;;;;;;6.43;2.33;;;11.00;73.50;;;;;;5027266;28;20432;-86
2022/04/09 13:43:37;;;;;;;2.87;1.83;;;11.20;66.80;;;;;;5030286;28;20969;-88
2022/04/09 13:46:23;;;;;;;9.33;2.27;;;11.70;66.80;;;;;;5027965;28;20814;-87
2022/04/09 13:49:09;;;;;;;10.23;2.90;;;12.00;61.70;;;;;;5030278;28;20491;-89
2022/04/09 13:51:57;;;;;;;7.83;3.03;;;12.10;61.00;;;;;;5029544;28;20463;-90
2022/04/09 13:54:42;;;;;;;10.67;2.53;;;11.90;62.60;;;;;;5027797;28;20528;-86
2022/04/09 13:57:29;;;;;;;8.03;2.80;;;11.70;59.50;;;;;;5018896;28;20455;-87
2022/04/09 14:00:15;;;;;;;8.97;2.83;;;11.20;61.00;;;;;;5027095;28;20456;-87
2022/04/09 14:03:01;;;;;;;5.17;2.37;;;11.10;64.50;;;;;;5030191;28;20873;-87
2022/04/09 14:05:47;;;;;;;11.70;2.90;;;11.30;63.70;;;;;;5036122;28;21065;-88
2022/04/09 14:08:34;;;;;;;10.73;2.70;;;11.70;56.30;;;;;;5027916;28;20572;-86
2022/04/09 14:11:19;;;;;;;5.07;2.27;;;11.90;56.40;;;;;;5034997;28;20452;-88
2022/04/09 14:14:05;;;;;;;10.70;2.73;;;11.90;54.20;;;;;;5043304;28;20415;-87
2022/04/09 14:16:51;;;;;;;10.57;2.53;;;12.10;55.00;;;;;;5038918;28;20421;-87
2022/04/09 14:19:36;;;;;;;7.67;2.77;;;12.30;51.30;;;;;;5033019;28;20420;-88
2022/04/09 14:22:22;;;;;;;11.17;2.10;;;12.50;45.30;;;;;;5029965;28;20803;-88
2022/04/09 14:25:10;;;;;;;4.70;2.20;;;12.80;44.20;;;;;;5042217;28;20442;-88